Time;durP1;ratioP1;P1;durP2;ratioP2;P2;SDS_P1;SDS_P2;PMS_P1;PMS_P2;Temp;Humidity;BMP_temperature;BMP_pressure;BME280_temperature;BME280_humidity;BME280_pressure;Samples;Min_cycle;Max_cycle;Signal;HPM_P1;HPM_P2
2023/03/27 00:01:36;;;;;;;56.85;35.20;;;;;;;;;;5016957;28;20018;-83
2023/03/27 00:04:02;;;;;;;51.95;31.05;;;;;;;;;;5016444;28;20083;-81
2023/03/27 00:06:28;;;;;;;50.92;32.97;;;;;;;;;;5016922;28;20037;-81
2023/03/27 00:08:54;;;;;;;88.38;45.78;;;;;;;;;;5034934;28;20105;-80
2023/03/27 00:11:21;;;;;;;69.72;40.40;;;;;;;;;;5017333;28;20025;-89
2023/03/27 00:13:48;;;;;;;67.47;42.90;;;;;;;;;;5017850;28;20365;-87
2023/03/27 00:16:17;;;;;;;54.55;33.83;;;;;;;;;;5035169;28;20358;-85
2023/03/27 00:18:44;;;;;;;53.63;34.90;;;;;;;;;;5033315;28;20026;-82
2023/03/27 00:21:10;;;;;;;84.07;45.35;;;;;;;;;;5033250;28;20112;-83
2023/03/27 00:23:36;;;;;;;64.35;39.33;;;;;;;;;;5033272;28;20037;-85
2023/03/27 00:26:03;;;;;;;49.67;32.50;;;;;;;;;;5033275;28;20453;-84
2023/03/27 00:28:29;;;;;;;51.22;32.42;;;;;;;;;;5046287;28;20058;-84
2023/03/27 00:30:56;;;;;;;65.38;39.28;;;;;;;;;;5036258;28;20580;-84
2023/03/27 00:33:23;;;;;;;57.55;35.83;;;;;;;;;;5035586;28;20151;-83
2023/03/27 00:35:50;;;;;;;51.15;32.58;;;;;;;;;;5035896;28;20041;-83
2023/03/27 00:38:17;;;;;;;62.70;37.47;;;;;;;;;;5036448;28;20021;-83
2023/03/27 00:40:44;;;;;;;56.50;35.05;;;;;;;;;;5036282;28;20083;-84
2023/03/27 00:43:20;;;;;;;54.33;31.83;;;;;;;;;;5035865;28;20048;-81
2023/03/27 00:45:47;;;;;;;48.60;29.90;;;;;;;;;;5036065;28;20025;-82
2023/03/27 00:48:14;;;;;;;63.17;34.95;;;;;;;;;;5035749;28;20446;-83
2023/03/27 00:50:42;;;;;;;50.40;30.30;;;;;;;;;;5035974;28;20111;-83
2023/03/27 00:53:20;;;;;;;45.78;28.65;;;;;;;;;;5036090;28;20032;-82
2023/03/27 00:55:48;;;;;;;41.70;26.45;;;;;;;;;;5053516;28;20035;-83
2023/03/27 00:58:20;;;;;;;42.30;25.75;;;;;;;;;;5036088;28;20025;-84
2023/03/27 01:00:48;;;;;;;41.53;26.08;;;;;;;;;;5035859;28;20032;-83
2023/03/27 01:03:15;;;;;;;41.05;25.48;;;;;;;;;;5035622;28;20029;-82
2023/03/27 01:05:41;;;;;;;47.58;27.35;;;;;;;;;;5035818;28;20495;-84
2023/03/27 01:08:07;;;;;;;43.92;25.77;;;;;;;;;;5035868;28;20112;-83
2023/03/27 01:10:52;;;;;;;36.78;23.58;;;;;;;;;;5035746;28;20028;-84
2023/03/27 01:13:23;;;;;;;54.47;30.10;;;;;;;;;;5036078;28;20484;-83
2023/03/27 01:16:05;;;;;;;61.40;31.02;;;;;;;;;;5036097;28;20029;-85
2023/03/27 01:18:47;;;;;;;51.55;31.52;;;;;;;;;;5036028;28;20472;-84
2023/03/27 01:21:26;;;;;;;47.00;28.45;;;;;;;;;;5053740;28;20075;-85
2023/03/27 01:23:52;;;;;;;38.70;24.65;;;;;;;;;;5035839;28;20030;-82
2023/03/27 01:26:28;;;;;;;41.03;25.02;;;;;;;;;;5035835;28;20029;-85
2023/03/27 01:29:01;;;;;;;58.60;32.50;;;;;;;;;;5053747;28;20150;-82
2023/03/27 01:31:50;;;;;;;56.47;31.65;;;;;;;;;;5053468;28;20127;-80
2023/03/27 01:34:28;;;;;;;44.10;27.23;;;;;;;;;;5035994;28;20067;-82
2023/03/27 01:36:57;;;;;;;41.80;27.05;;;;;;;;;;5053787;28;20053;-85
2023/03/27 01:39:34;;;;;;;47.25;27.90;;;;;;;;;;5035605;28;20029;-83
2023/03/27 01:42:06;;;;;;;41.33;25.80;;;;;;;;;;5054150;28;20025;-84
2023/03/27 01:44:32;;;;;;;53.83;31.27;;;;;;;;;;5053008;28;20017;-85
2023/03/27 01:47:01;;;;;;;53.53;30.63;;;;;;;;;;5035749;28;20029;-84
2023/03/27 01:49:30;;;;;;;55.03;29.95;;;;;;;;;;5053532;28;20030;-85
2023/03/27 01:52:01;;;;;;;46.67;29.35;;;;;;;;;;5053342;28;20025;-84
2023/03/27 01:54:27;;;;;;;41.47;22.55;;;;;;;;;;5035795;28;20021;-84
2023/03/27 01:57:15;;;;;;;37.33;23.88;;;;;;;;;;5037152;28;20050;-85
2023/03/27 01:59:43;;;;;;;42.47;26.27;;;;;;;;;;5038947;28;20032;-82
2023/03/27 02:02:12;;;;;;;29.08;18.10;;;;;;;;;;5039446;28;20032;-84
2023/03/27 02:05:05;;;;;;;25.88;15.60;;;;;;;;;;5041038;28;20024;-83
2023/03/27 02:07:34;;;;;;;56.63;26.10;;;;;;;;;;5036323;28;20037;-84
2023/03/27 02:10:03;;;;;;;51.20;27.67;;;;;;;;;;5039013;28;20122;-84
2023/03/27 02:12:32;;;;;;;47.30;26.17;;;;;;;;;;5038664;28;20040;-84
2023/03/27 02:15:18;;;;;;;36.30;20.83;;;;;;;;;;5038970;28;20021;-83
2023/03/27 02:17:49;;;;;;;31.27;19.52;;;;;;;;;;5056442;28;20037;-83
2023/03/27 02:20:16;;;;;;;35.78;20.45;;;;;;;;;;5038550;28;20032;-85
2023/03/27 02:22:44;;;;;;;32.00;19.85;;;;;;;;;;5057057;28;20025;-83
2023/03/27 02:25:40;;;;;;;36.95;22.45;;;;;;;;;;5056581;28;20018;-83
2023/03/27 02:28:06;;;;;;;39.05;24.25;;;;;;;;;;5029791;28;20028;-82
2023/03/27 02:30:40;;;;;;;38.92;22.48;;;;;;;;;;5056642;28;20082;-84
2023/03/27 02:33:26;;;;;;;33.20;20.15;;;;;;;;;;5038509;28;20040;-85
2023/03/27 02:35:55;;;;;;;32.45;20.70;;;;;;;;;;5038632;28;20056;-83
2023/03/27 02:38:28;;;;;;;38.53;21.70;;;;;;;;;;5056346;28;20021;-83
2023/03/27 02:40:54;;;;;;;36.97;18.42;;;;;;;;;;5038284;28;20372;-83
2023/03/27 02:43:20;;;;;;;27.33;17.40;;;;;;;;;;5038481;28;20018;-84
2023/03/27 02:46:15;;;;;;;26.92;15.77;;;;;;;;;;5038367;28;20024;-84
2023/03/27 02:48:45;;;;;;;21.67;12.25;;;;;;;;;;5029467;28;20119;-84
2023/03/27 02:51:14;;;;;;;15.25;10.27;;;;;;;;;;5036685;28;20035;-84
2023/03/27 02:53:43;;;;;;;14.07;8.98;;;;;;;;;;5037668;28;20418;-83
2023/03/27 02:56:10;;;;;;;15.43;9.80;;;;;;;;;;5037103;28;20028;-82
2023/03/27 02:58:49;;;;;;;13.65;8.10;;;;;;;;;;5037384;28;20032;-84
2023/03/27 03:01:17;;;;;;;12.07;6.18;;;;;;;;;;5038070;28;20032;-83
2023/03/27 03:03:52;;;;;;;13.65;7.55;;;;;;;;;;5055154;28;20025;-85
2023/03/27 03:06:19;;;;;;;10.43;6.68;;;;;;;;;;5056262;28;20074;-83
2023/03/27 03:08:46;;;;;;;20.85;12.43;;;;;;;;;;5054418;28;20029;-84
2023/03/27 03:11:13;;;;;;;38.33;18.33;;;;;;;;;;5037951;28;20044;-84
2023/03/27 03:13:40;;;;;;;44.15;19.50;;;;;;;;;;5037842;28;20031;-83
2023/03/27 03:16:07;;;;;;;27.23;13.95;;;;;;;;;;5037406;28;20033;-83
2023/03/27 03:18:33;;;;;;;28.55;13.38;;;;;;;;;;5037518;28;20032;-84
2023/03/27 03:20:59;;;;;;;26.45;13.88;;;;;;;;;;5037805;28;20051;-85
2023/03/27 03:23:26;;;;;;;37.72;16.50;;;;;;;;;;5054986;28;20392;-84
2023/03/27 03:25:55;;;;;;;62.60;23.10;;;;;;;;;;5055540;28;20029;-83
2023/03/27 03:28:24;;;;;;;42.88;16.38;;;;;;;;;;5054792;28;20040;-85
2023/03/27 03:30:52;;;;;;;21.20;9.50;;;;;;;;;;5036965;28;20380;-83
2023/03/27 03:33:19;;;;;;;15.77;7.05;;;;;;;;;;5054439;28;20025;-84
2023/03/27 03:35:46;;;;;;;10.30;5.95;;;;;;;;;;5037540;28;20083;-83
2023/03/27 03:38:12;;;;;;;12.45;5.68;;;;;;;;;;5037157;28;20138;-84
2023/03/27 03:40:38;;;;;;;19.75;7.20;;;;;;;;;;5055482;28;20021;-84
2023/03/27 03:43:04;;;;;;;14.45;7.47;;;;;;;;;;5037032;28;20021;-83
2023/03/27 03:45:30;;;;;;;17.58;10.93;;;;;;;;;;5037359;28;20025;-83
2023/03/27 03:47:56;;;;;;;16.90;12.05;;;;;;;;;;5037346;28;20419;-82
2023/03/27 03:50:22;;;;;;;19.10;10.00;;;;;;;;;;5036991;28;20025;-81
2023/03/27 03:52:48;;;;;;;12.85;8.52;;;;;;;;;;5037175;28;20055;-82
2023/03/27 03:55:15;;;;;;;11.63;7.55;;;;;;;;;;5036785;28;20040;-83
2023/03/27 03:57:45;;;;;;;10.90;6.43;;;;;;;;;;5036652;28;20027;-82
2023/03/27 04:00:12;;;;;;;9.32;5.47;;;;;;;;;;5055258;28;20024;-82
2023/03/27 04:02:40;;;;;;;13.80;6.85;;;;;;;;;;5054771;28;20028;-82
2023/03/27 04:05:06;;;;;;;13.10;5.93;;;;;;;;;;5054509;28;20108;-82
2023/03/27 04:07:34;;;;;;;8.68;5.47;;;;;;;;;;5037035;28;20021;-83
2023/03/27 04:10:03;;;;;;;9.98;5.20;;;;;;;;;;5054387;28;20017;-83
2023/03/27 04:12:29;;;;;;;8.27;5.32;;;;;;;;;;5036440;28;20057;-83
2023/03/27 04:14:56;;;;;;;10.73;5.40;;;;;;;;;;5036690;28;20476;-83
2023/03/27 04:17:25;;;;;;;10.63;5.13;;;;;;;;;;5054841;28;20025;-83
2023/03/27 04:19:53;;;;;;;7.90;4.82;;;;;;;;;;5054591;28;20052;-83
2023/03/27 04:22:21;;;;;;;9.05;5.18;;;;;;;;;;5047455;28;20013;-80
2023/03/27 04:24:49;;;;;;;15.23;6.95;;;;;;;;;;5061831;28;20017;-82
2023/03/27 04:27:16;;;;;;;17.42;7.68;;;;;;;;;;5059295;28;20051;-81
2023/03/27 04:29:46;;;;;;;19.23;9.25;;;;;;;;;;5036655;28;20052;-81
2023/03/27 04:32:12;;;;;;;33.78;15.95;;;;;;;;;;5035942;28;20171;-82
2023/03/27 04:34:41;;;;;;;45.40;22.55;;;;;;;;;;5036410;28;20025;-81
2023/03/27 04:37:07;;;;;;;21.48;13.27;;;;;;;;;;5036330;28;20050;-82
2023/03/27 04:39:38;;;;;;;45.55;23.50;;;;;;;;;;5036992;28;20083;-82
2023/03/27 04:42:05;;;;;;;34.42;18.83;;;;;;;;;;5037897;28;20054;-82
2023/03/27 04:44:31;;;;;;;32.53;17.17;;;;;;;;;;5036567;28;20036;-82
2023/03/27 04:47:00;;;;;;;20.60;12.32;;;;;;;;;;5035933;28;20490;-82
2023/03/27 04:49:26;;;;;;;14.35;8.52;;;;;;;;;;5035403;28;20025;-80
2023/03/27 04:51:52;;;;;;;13.77;7.00;;;;;;;;;;5035003;28;20119;-79
2023/03/27 04:54:18;;;;;;;9.98;6.45;;;;;;;;;;5052855;28;20025;-80
2023/03/27 04:56:45;;;;;;;11.27;6.30;;;;;;;;;;5035753;28;20060;-81
2023/03/27 04:59:12;;;;;;;14.48;7.40;;;;;;;;;;5053860;28;20351;-81
2023/03/27 05:01:38;;;;;;;15.10;8.25;;;;;;;;;;5035568;28;20112;-81
2023/03/27 05:04:05;;;;;;;24.38;12.82;;;;;;;;;;5035865;28;20483;-81
2023/03/27 05:06:31;;;;;;;27.80;14.75;;;;;;;;;;5036003;28;20476;-83
2023/03/27 05:08:58;;;;;;;33.95;19.77;;;;;;;;;;5035655;28;20439;-82
2023/03/27 05:11:24;;;;;;;34.13;19.63;;;;;;;;;;5035874;28;20017;-82
2023/03/27 05:13:50;;;;;;;30.73;20.45;;;;;;;;;;5053523;28;20430;-81
2023/03/27 05:16:17;;;;;;;38.35;24.00;;;;;;;;;;5035514;28;20025;-82
2023/03/27 05:18:46;;;;;;;36.95;18.25;;;;;;;;;;5053613;28;20017;-80
2023/03/27 05:21:12;;;;;;;22.42;14.38;;;;;;;;;;5035572;28;20021;-82
2023/03/27 05:23:38;;;;;;;22.25;14.18;;;;;;;;;;5035875;28;20094;-82
2023/03/27 05:26:05;;;;;;;24.75;15.40;;;;;;;;;;5035549;28;20035;-82
2023/03/27 05:28:31;;;;;;;24.50;14.73;;;;;;;;;;5035392;28;20032;-81
2023/03/27 05:30:57;;;;;;;27.30;14.88;;;;;;;;;;5053647;28;20017;-82
2023/03/27 05:33:23;;;;;;;19.40;12.52;;;;;;;;;;5039717;28;20563;-79
2023/03/27 05:35:51;;;;;;;22.23;15.50;;;;;;;;;;5039275;28;20094;-81
2023/03/27 05:38:18;;;;;;;23.20;11.38;;;;;;;;;;5039630;28;20021;-81
2023/03/27 05:40:44;;;;;;;18.75;10.93;;;;;;;;;;5039606;28;20468;-82
2023/03/27 05:43:10;;;;;;;17.45;10.60;;;;;;;;;;5057143;28;20464;-81
2023/03/27 05:45:36;;;;;;;17.60;10.55;;;;;;;;;;5039557;28;20029;-81
2023/03/27 05:48:03;;;;;;;20.05;10.75;;;;;;;;;;5056993;28;20077;-81
2023/03/27 05:50:31;;;;;;;15.93;10.02;;;;;;;;;;5039085;28;20472;-82
2023/03/27 05:52:58;;;;;;;18.20;12.05;;;;;;;;;;5039324;28;20029;-81
2023/03/27 05:55:26;;;;;;;19.85;11.80;;;;;;;;;;5056773;28;20384;-81
2023/03/27 05:57:52;;;;;;;18.65;11.80;;;;;;;;;;5054465;28;20086;-81
2023/03/27 06:00:24;;;;;;;20.67;12.32;;;;;;;;;;5038410;28;20074;-79
2023/03/27 06:02:52;;;;;;;31.42;22.45;;;;;;;;;;5037495;28;20036;-80
2023/03/27 06:05:19;;;;;;;25.92;18.92;;;;;;;;;;5038863;28;20464;-82
2023/03/27 06:07:49;;;;;;;15.38;11.02;;;;;;;;;;5056992;28;20028;-79
2023/03/27 06:10:16;;;;;;;12.23;8.38;;;;;;;;;;5056659;28;20100;-78
2023/03/27 06:12:43;;;;;;;12.00;9.20;;;;;;;;;;5038909;28;20028;-79
2023/03/27 06:15:10;;;;;;;17.60;10.02;;;;;;;;;;5038520;28;20035;-79
2023/03/27 06:17:38;;;;;;;19.25;11.25;;;;;;;;;;5056551;28;20021;-79
2023/03/27 06:20:11;;;;;;;18.40;11.10;;;;;;;;;;5056288;28;20021;-77
2023/03/27 06:22:44;;;;;;;17.35;10.75;;;;;;;;;;5038882;28;20027;-77
2023/03/27 06:25:10;;;;;;;30.02;17.38;;;;;;;;;;5038341;28;20017;-77
2023/03/27 06:27:37;;;;;;;26.38;15.55;;;;;;;;;;5055037;28;20104;-78
2023/03/27 06:30:03;;;;;;;16.60;11.23;;;;;;;;;;5037932;28;20075;-78
2023/03/27 06:32:29;;;;;;;17.35;9.75;;;;;;;;;;5054683;28;20055;-79
2023/03/27 06:34:55;;;;;;;19.23;10.35;;;;;;;;;;5056425;28;20028;-79
2023/03/27 06:37:23;;;;;;;14.02;9.88;;;;;;;;;;5038449;28;20094;-79
2023/03/27 06:39:49;;;;;;;20.55;12.60;;;;;;;;;;5038140;28;20090;-79
2023/03/27 06:42:16;;;;;;;11.88;8.30;;;;;;;;;;5038269;28;20017;-79
2023/03/27 06:44:42;;;;;;;11.93;7.55;;;;;;;;;;5038248;28;20021;-80
2023/03/27 06:47:08;;;;;;;12.65;9.57;;;;;;;;;;5055496;28;20029;-77
2023/03/27 06:49:34;;;;;;;11.32;7.65;;;;;;;;;;5038256;28;20027;-79
2023/03/27 06:52:01;;;;;;;13.98;7.30;;;;;;;;;;5037986;28;20017;-79
2023/03/27 06:54:28;;;;;;;13.95;6.95;;;;;;;;;;5038176;28;20075;-80
2023/03/27 06:56:54;;;;;;;12.98;7.60;;;;;;;;;;5055929;28;20025;-79
2023/03/27 06:59:20;;;;;;;12.27;7.85;;;;;;;;;;5037817;28;20074;-79
2023/03/27 07:01:47;;;;;;;12.23;7.35;;;;;;;;;;5037941;28;20555;-79
2023/03/27 07:04:13;;;;;;;14.45;8.27;;;;;;;;;;5037950;28;20025;-77
2023/03/27 07:06:39;;;;;;;12.57;7.82;;;;;;;;;;5037348;28;20025;-78
2023/03/27 07:09:06;;;;;;;11.85;7.70;;;;;;;;;;5037845;28;20074;-79
2023/03/27 07:11:32;;;;;;;14.63;8.95;;;;;;;;;;5037661;28;20059;-79
2023/03/27 07:13:58;;;;;;;10.23;6.07;;;;;;;;;;5037465;28;20025;-79
2023/03/27 07:16:25;;;;;;;9.93;5.97;;;;;;;;;;5055222;28;20075;-79
2023/03/27 07:18:51;;;;;;;11.05;4.20;;;;;;;;;;5055562;28;20044;-79
2023/03/27 07:21:17;;;;;;;10.00;5.10;;;;;;;;;;5037355;28;20021;-79
2023/03/27 07:23:44;;;;;;;7.38;4.90;;;;;;;;;;5037295;28;20021;-80
2023/03/27 07:26:10;;;;;;;11.00;6.70;;;;;;;;;;5055631;28;20026;-79
2023/03/27 07:28:37;;;;;;;9.13;7.03;;;;;;;;;;5055387;28;20021;-80
2023/03/27 07:31:11;;;;;;;11.13;4.60;;;;;;;;;;5037104;28;20461;-79
2023/03/27 07:33:37;;;;;;;10.48;5.43;;;;;;;;;;5037214;28;20058;-79
2023/03/27 07:36:05;;;;;;;10.52;5.38;;;;;;;;;;5054719;28;20467;-80
2023/03/27 07:38:32;;;;;;;8.52;5.60;;;;;;;;;;5037224;28;20029;-79
2023/03/27 07:41:05;;;;;;;16.52;5.50;;;;;;;;;;5036838;28;20029;-78
2023/03/27 07:43:32;;;;;;;10.35;5.07;;;;;;;;;;5037212;28;20025;-80
2023/03/27 07:45:59;;;;;;;9.48;5.95;;;;;;;;;;5037106;28;20025;-80
2023/03/27 07:48:26;;;;;;;11.45;6.90;;;;;;;;;;5036806;28;20428;-78
2023/03/27 07:50:56;;;;;;;6.38;4.35;;;;;;;;;;5037105;28;20021;-79
2023/03/27 07:53:24;;;;;;;11.80;6.15;;;;;;;;;;5036783;28;20025;-80
2023/03/27 07:55:51;;;;;;;12.60;7.03;;;;;;;;;;5036038;28;20025;-80
2023/03/27 07:58:20;;;;;;;10.13;6.70;;;;;;;;;;5036985;28;20021;-82
2023/03/27 08:00:50;;;;;;;12.10;5.28;;;;;;;;;;5054396;28;20017;-79
2023/03/27 08:03:17;;;;;;;8.93;5.07;;;;;;;;;;5036736;28;20017;-80
2023/03/27 08:05:43;;;;;;;8.95;4.75;;;;;;;;;;5054727;28;20029;-80
2023/03/27 08:08:09;;;;;;;14.77;7.03;;;;;;;;;;5037130;28;20025;-81
2023/03/27 08:10:36;;;;;;;12.95;8.60;;;;;;;;;;5036933;28;20045;-84
2023/03/27 08:13:02;;;;;;;11.90;6.28;;;;;;;;;;5037266;28;20025;-82
2023/03/27 08:15:29;;;;;;;10.80;5.82;;;;;;;;;;5037101;28;20032;-81
2023/03/27 08:17:55;;;;;;;9.65;6.03;;;;;;;;;;5036951;28;20051;-82
2023/03/27 08:20:22;;;;;;;9.68;4.70;;;;;;;;;;5037004;28;20465;-83
2023/03/27 08:22:50;;;;;;;9.40;4.63;;;;;;;;;;5036986;28;20028;-83
2023/03/27 08:25:17;;;;;;;7.88;4.20;;;;;;;;;;5036908;28;20032;-83
2023/03/27 08:27:46;;;;;;;7.88;4.50;;;;;;;;;;5036857;28;20032;-84
2023/03/27 08:30:13;;;;;;;8.05;4.25;;;;;;;;;;5036865;28;20126;-83
2023/03/27 08:32:40;;;;;;;10.32;4.63;;;;;;;;;;5036726;28;20098;-85
2023/03/27 08:35:06;;;;;;;18.10;7.60;;;;;;;;;;5036979;28;20021;-85
2023/03/27 08:37:32;;;;;;;12.13;6.70;;;;;;;;;;5054451;28;20029;-85
2023/03/27 08:40:00;;;;;;;13.02;5.88;;;;;;;;;;5037227;28;20112;-84
2023/03/27 08:42:38;;;;;;;38.60;13.98;;;;;;;;;;5037222;28;20071;-87
2023/03/27 08:45:26;;;;;;;22.98;8.63;;;;;;;;;;5037210;28;20464;-84
2023/03/27 08:48:03;;;;;;;9.40;5.10;;;;;;;;;;5036909;28;20025;-88
2023/03/27 08:50:45;;;;;;;10.18;5.28;;;;;;;;;;5033550;28;20468;-88
2023/03/27 08:53:18;;;;;;;14.30;6.22;;;;;;;;;;5016921;28;20062;-86
2023/03/27 08:55:45;;;;;;;13.50;5.18;;;;;;;;;;5033180;28;20076;-84
2023/03/27 08:58:18;;;;;;;14.32;7.95;;;;;;;;;;5016418;28;20029;-85
2023/03/27 09:00:47;;;;;;;20.88;11.32;;;;;;;;;;5016782;28;20377;-84
2023/03/27 09:03:17;;;;;;;25.48;14.35;;;;;;;;;;5034446;28;20021;-86
2023/03/27 09:06:10;;;;;;;29.35;16.80;;;;;;;;;;5015856;28;20465;-87
2023/03/27 09:08:48;;;;;;;14.60;8.35;;;307.50;2304.00;;;;;;4980296;28;20033;-87
2023/03/27 09:11:33;;;;;;;7.38;4.70;;;307.40;2304.00;;;;;;5016686;28;20116;-87
2023/03/27 09:14:03;;;;;;;5.78;2.92;;;307.30;2304.00;;;;;;5016652;28;20022;-87
2023/03/27 09:16:34;;;;;;;7.18;3.72;;;307.20;2304.00;;;;;;5016987;28;20069;-84
2023/03/27 09:19:15;;;;;;;6.38;4.05;;;307.20;2304.00;;;;;;5016229;28;20083;-84
2023/03/27 09:22:01;;;;;;;6.43;4.03;;;307.20;2304.00;;;;;;5016216;28;20036;-83
2023/03/27 09:24:39;;;;;;;11.60;7.20;;;307.20;2304.00;;;;;;4977035;28;20029;-88
2023/03/27 09:27:32;;;;;;;83.07;67.80;;;282.50;2278.40;;;;;;5015999;28;20040;-85
2023/03/27 09:30:09;;;;;;;76.90;64.20;;;307.30;2304.00;;;;;;5034472;28;20488;-86
2023/03/27 09:32:36;;;;;;;37.10;32.22;;;307.20;2304.00;;;;;;5016438;28;20041;-90
2023/03/27 09:35:06;;;;;;;29.77;24.98;;;307.30;2304.00;;;;;;5032258;28;20080;-81
2023/03/27 09:37:32;;;;;;;90.50;76.28;;;307.20;2304.00;;;;;;5033409;28;20061;-87
2023/03/27 09:39:59;;;;;;;23.98;19.38;;;307.30;2304.00;;;;;;5033064;28;20029;-86
2023/03/27 09:42:28;;;;;;;44.53;36.67;;;282.50;2278.40;;;;;;5015532;28;20033;-83
2023/03/27 09:44:57;;;;;;;28.77;19.13;;;307.20;2304.00;;;;;;5033731;28;20457;-83
2023/03/27 09:47:39;;;;;;;16.85;10.85;;;282.30;2278.40;;;;;;5031798;28;20041;-86
2023/03/27 09:50:14;;;;;;;19.13;13.70;;;282.40;2278.40;;;;;;5032333;28;20025;-84
2023/03/27 09:52:40;;;;;;;22.70;16.38;;;282.50;2278.40;;;;;;5032007;28;20554;-87
2023/03/27 09:55:23;;;;;;;22.63;15.18;;;282.50;2278.40;;;;;;5032882;28;20026;-84
2023/03/27 09:57:57;;;;;;;15.43;11.15;;;282.50;2278.40;;;;;;5032641;28;20033;-87
2023/03/27 10:00:29;;;;;;;17.08;12.55;;;307.20;2304.00;;;;;;5016144;28;20125;-86
2023/03/27 10:03:16;;;;;;;17.08;12.52;;;307.20;2304.00;;;;;;5043448;28;20051;-87
2023/03/27 10:05:42;;;;;;;15.60;11.63;;;307.20;2304.00;;;;;;5041400;28;20081;-87
2023/03/27 10:08:31;;;;;;;23.10;18.95;;;307.20;2304.00;;;;;;5031413;28;20032;-87
2023/03/27 10:10:58;;;;;;;22.17;16.05;;;282.40;2278.40;;;;;;5023343;28;20079;-84
2023/03/27 10:13:27;;;;;;;17.17;11.52;;;282.30;2278.40;;;;;;5049536;28;20028;-88
2023/03/27 10:16:06;;;;;;;13.77;10.60;;;282.30;2278.40;;;;;;5041400;28;20032;-87
2023/03/27 10:18:41;;;;;;;11.65;7.90;;;282.50;2278.40;;;;;;5038123;28;20060;-86
2023/03/27 10:21:10;;;;;;;14.63;9.75;;;307.30;2304.00;;;;;;5039125;28;20043;-87
2023/03/27 10:23:48;;;;;;;16.40;10.13;;;307.40;2304.00;;;;;;5027476;28;20037;-86
2023/03/27 10:26:20;;;;;;;14.77;9.82;;;307.60;2304.00;;;;;;5035586;28;20121;-87
2023/03/27 10:28:53;;;;;;;18.20;11.95;;;307.80;2304.00;;;;;;5032753;28;20116;-86
2023/03/27 10:31:36;;;;;;;18.10;11.90;;;307.80;2304.00;;;;;;5038399;28;20049;-86
2023/03/27 10:34:05;;;;;;;17.65;12.43;;;308.00;2304.00;;;;;;5024192;28;20083;-87
2023/03/27 10:36:36;;;;;;;26.88;19.25;;;308.10;2304.00;;;;;;5018621;28;20029;-85
2023/03/27 10:39:13;;;;;;;24.73;17.90;;;308.10;2304.00;;;;;;5025398;28;20068;-87
2023/03/27 10:41:39;;;;;;;20.80;14.80;;;332.80;2329.60;;;;;;5027456;28;20029;-86
2023/03/27 10:44:17;;;;;;;22.42;13.32;;;308.10;2304.00;;;;;;5033844;28;20051;-86
2023/03/27 10:46:43;;;;;;;21.70;13.48;;;308.10;2304.00;;;;;;5047641;28;20029;-86
2023/03/27 10:49:09;;;;;;;23.23;14.20;;;308.10;2304.00;;;;;;5056440;28;20098;-85
2023/03/27 10:52:15;;;;;;;25.02;14.57;;;308.10;2304.00;;;;;;5026887;28;20746;-85
2023/03/27 10:55:00;;;;;;;19.00;10.90;;;332.80;2329.60;;;;;;5034657;28;20415;-86
2023/03/27 10:57:33;;;;;;;17.75;12.57;;;332.80;2329.60;;;;;;5037951;28;20050;-85
2023/03/27 11:00:09;;;;;;;23.17;13.38;;;332.80;2329.60;;;;;;5023452;28;20030;-86
2023/03/27 11:02:50;;;;;;;18.60;12.82;;;332.80;2329.60;;;;;;5034728;28;20045;-85
2023/03/27 11:05:22;;;;;;;20.42;14.48;;;332.80;2329.60;;;;;;5026641;28;20036;-87
2023/03/27 11:07:55;;;;;;;29.40;20.27;;;332.80;2329.60;;;;;;5025409;28;20025;-85
2023/03/27 11:10:35;;;;;;;21.13;13.77;;;332.80;2329.60;;;;;;5034653;28;20111;-86
2023/03/27 11:13:09;;;;;;;17.58;12.52;;;332.90;2329.60;;;;;;5026432;28;20028;-87
2023/03/27 11:15:42;;;;;;;19.67;13.63;;;332.90;2329.60;;;;;;5049970;28;20418;-85
2023/03/27 11:18:26;;;;;;;;;;;333.00;2329.60;;;;;;5058390;28;20029;-88
2023/03/27 11:21:21;;;;;;;23.45;15.80;;;333.00;2329.60;;;;;;5034430;28;19904;-85
2023/03/27 11:24:30;;;;;;;21.50;15.43;;;333.10;2329.60;;;;;;5038013;28;20024;-84
2023/03/27 11:27:11;;;;;;;12.60;6.80;;;333.10;2329.60;;;;;;5029219;28;20044;-84
2023/03/27 11:30:04;;;;;;;22.95;11.93;;;332.90;2329.60;;;;;;5054197;28;20393;-84
2023/03/27 11:32:57;;;;;;;19.38;12.00;;;333.00;2329.60;;;;;;5038894;28;20057;-85
2023/03/27 11:35:27;;;;;;;15.13;10.35;;;333.20;2329.60;;;;;;5027577;28;20065;-83
2023/03/27 11:38:00;;;;;;;12.63;9.50;;;333.20;2329.60;;;;;;5030768;28;20048;-85
2023/03/27 11:40:38;;;;;;;19.73;17.67;;;333.30;2329.60;;;;;;5038513;28;20026;-85
2023/03/27 11:43:04;;;;;;;9.05;5.95;;;333.30;2329.60;;;;;;5030265;28;20160;-85
2023/03/27 11:46:17;;;;;;;16.10;8.98;;;333.10;2329.60;;;;;;5027696;28;20488;-85
2023/03/27 11:48:48;;;;;;;25.83;11.90;;;333.20;2329.60;;;;;;5017804;28;20029;-85
2023/03/27 11:51:40;;;;;;;28.67;13.30;;;333.30;2329.60;;;;;;5034940;28;20029;-84
2023/03/27 11:54:12;;;;;;;29.55;22.40;;;333.40;2329.60;;;;;;5036509;28;20056;-85
2023/03/27 11:56:54;;;;;;;9.55;6.53;;;333.50;2329.60;;;;;;5037463;28;20376;-85
2023/03/27 11:59:26;;;;;;;9.45;6.30;;;333.30;2329.60;;;;;;5053108;28;20029;-84
2023/03/27 12:02:02;;;;;;;10.25;7.53;;;333.20;2329.60;;;;;;5034848;28;20029;-85
2023/03/27 12:04:43;;;;;;;16.27;11.90;;;333.30;2329.60;;;;;;5035408;28;20029;-85
2023/03/27 12:07:45;;;;;;;12.13;8.80;;;333.50;2329.60;;;;;;5043326;28;20032;-86
2023/03/27 12:10:34;;;;;;;15.02;11.05;;;333.40;2329.60;;;;;;5021981;28;20117;-85
2023/03/27 12:13:07;;;;;;;13.57;9.30;;;333.40;2329.60;;;;;;5043283;28;20095;-85
2023/03/27 12:15:51;;;;;;;112.07;66.97;;;333.40;2329.60;;;;;;5038024;28;20029;-85
2023/03/27 12:18:32;;;;;;;22.80;17.98;;;333.70;2329.60;;;;;;5023659;28;20492;-83
2023/03/27 12:21:12;;;;;;;22.55;15.90;;;358.40;2329.60;;;;;;5050948;28;20021;-84
2023/03/27 12:23:59;;;;;;;28.80;19.20;;;358.50;2329.60;;;;;;5028395;28;20120;-84
2023/03/27 12:26:32;;;;;;;18.88;12.95;;;358.70;2329.60;;;;;;5020179;28;20048;-83
2023/03/27 12:29:24;;;;;;;;;;;358.70;2329.60;;;;;;5035150;28;20017;-83
2023/03/27 12:31:55;;;;;;;11.20;7.15;;;358.70;2329.60;;;;;;5051757;28;19924;-83
2023/03/27 12:34:49;;;;;;;14.93;8.90;;;358.60;2329.60;;;;;;5053778;28;20047;-85
2023/03/27 12:37:16;;;;;;;18.33;13.95;;;358.50;2329.60;;;;;;5037241;28;20042;-83
2023/03/27 12:39:57;;;;;;;26.42;18.23;;;358.60;2329.60;;;;;;5027239;28;20029;-82
2023/03/27 12:42:50;;;;;;;20.40;14.88;;;358.70;2329.60;;;;;;5020573;28;20030;-84
2023/03/27 12:45:22;;;;;;;20.13;14.02;;;358.80;2329.60;;;;;;5027963;28;20022;-83
2023/03/27 12:48:09;;;;;;;17.90;10.80;;;358.90;2329.60;;;;;;5029264;28;20055;-83
2023/03/27 12:50:50;;;;;;;13.98;10.35;;;358.90;2329.60;;;;;;5033408;28;20025;-83
2023/03/27 12:53:19;;;;;;;19.58;12.02;;;358.80;2329.60;;;;;;5042359;28;20033;-84
2023/03/27 12:55:45;;;;;;;19.70;11.45;;;358.80;2329.60;;;;;;5023536;28;20534;-85
2023/03/27 12:58:28;;;;;;;16.50;11.63;;;358.80;2329.60;;;;;;5048506;28;20037;-85
2023/03/27 13:00:59;;;;;;;13.68;9.32;;;358.80;2329.60;;;;;;5020965;28;20025;-84
2023/03/27 13:03:55;;;;;;;12.23;7.60;;;358.80;2329.60;;;;;;5034991;28;20028;-84
2023/03/27 13:06:26;;;;;;;12.38;7.65;;;358.80;2329.60;;;;;;5019557;28;20469;-84
2023/03/27 13:09:22;;;;;;;14.68;10.13;;;358.70;2329.60;;;;;;5030612;28;20112;-84
2023/03/27 13:12:18;;;;;;;17.58;10.52;;;358.70;2329.60;;;;;;5029247;28;20032;-84
2023/03/27 13:15:21;;;;;;;10.65;6.43;;;358.70;2329.60;;;;;;5019984;28;20040;-83
2023/03/27 13:17:55;;;;;;;10.70;7.05;;;358.80;2329.60;;;;;;5035833;28;20044;-83
2023/03/27 13:20:50;;;;;;;30.38;11.75;;;359.00;2329.60;;;;;;5034667;28;20148;-83
2023/03/27 13:23:49;;;;;;;16.30;9.63;;;359.20;2329.60;;;;;;5042310;28;20021;-86
2023/03/27 13:26:22;;;;;;;9.90;6.05;;;;;;;;;;5019457;28;20118;-81
2023/03/27 13:28:50;;;;;;;19.60;8.13;;;410.50;2355.20;;;;;;5030953;28;20172;-81
2023/03/27 13:31:44;;;;;;;8.63;5.60;;;410.50;2355.20;;;;;;5024027;28;20128;-81
2023/03/27 13:34:26;;;;;;;10.68;6.53;;;435.60;2355.20;;;;;;5019639;28;20452;-80
2023/03/27 13:37:04;;;;;;;8.55;6.22;;;435.80;2355.20;;;;;;5020586;28;20025;-83
2023/03/27 13:40:00;;;;;;;8.50;4.65;;;460.90;2380.80;;;;;;5053107;28;20385;-83
2023/03/27 13:42:44;;;;;;;13.40;9.00;;;461.10;2380.80;;;;;;5018789;28;20029;-82
2023/03/27 13:45:29;;;;;;;13.32;6.45;;;461.20;2380.80;;;;;;5027749;28;20026;-83
2023/03/27 13:48:26;;;;;;;11.52;6.65;;;461.50;2380.80;;;;;;5029662;28;20029;-82
2023/03/27 13:51:21;;;;;;;10.18;6.53;;;461.20;2380.80;;;;;;5020469;28;20017;-82
2023/03/27 13:54:05;;;;;;;43.08;25.75;;;461.20;2380.80;;;;;;5056535;28;20048;-82
2023/03/27 13:56:46;;;;;;;30.35;20.33;;;461.50;2380.80;;;;;;5036563;28;20033;-81
2023/03/27 13:59:36;;;;;;;15.98;10.90;;;486.40;2380.80;;;;;;5027384;28;20071;-83
2023/03/27 14:02:47;;;;;;;12.75;9.05;;;486.50;2380.80;;;;;;5024364;28;20025;-84